sensor_id;sensor_type;location;lat;lon;timestamp;P1;durP1;ratioP1;P2;durP2;ratioP2
17153;SDS011;8692;52.164;7.558;2023-03-01T00:01:45;3.90;;;3.50;;
17153;SDS011;8692;52.164;7.558;2023-03-01T00:04:16;4.80;;;3.47;;
17153;SDS011;8692;52.164;7.558;2023-03-01T00:06:45;7.30;;;4.47;;
17153;SDS011;8692;52.164;7.558;2023-03-01T00:09:14;4.90;;;3.57;;
17153;SDS011;8692;52.164;7.558;2023-03-01T00:11:45;4.90;;;3.60;;
17153;SDS011;8692;52.164;7.558;2023-03-01T00:14:14;4.60;;;3.47;;
17153;SDS011;8692;52.164;7.558;2023-03-01T00:16:45;4.33;;;3.10;;
17153;SDS011;8692;52.164;7.558;2023-03-01T00:19:17;5.13;;;3.90;;
17153;SDS011;8692;52.164;7.558;2023-03-01T00:21:49;6.10;;;3.93;;
17153;SDS011;8692;52.164;7.558;2023-03-01T00:24:17;5.93;;;3.73;;
17153;SDS011;8692;52.164;7.558;2023-03-01T00:26:45;5.43;;;3.37;;
17153;SDS011;8692;52.164;7.558;2023-03-01T00:29:14;6.17;;;3.50;;
17153;SDS011;8692;52.164;7.558;2023-03-01T00:31:42;9.20;;;3.93;;
17153;SDS011;8692;52.164;7.558;2023-03-01T00:34:10;5.13;;;3.63;;
17153;SDS011;8692;52.164;7.558;2023-03-01T00:36:38;4.27;;;3.20;;
17153;SDS011;8692;52.164;7.558;2023-03-01T00:39:11;5.70;;;4.03;;
17153;SDS011;8692;52.164;7.558;2023-03-01T00:41:41;5.43;;;3.80;;
17153;SDS011;8692;52.164;7.558;2023-03-01T00:44:13;6.87;;;3.67;;
17153;SDS011;8692;52.164;7.558;2023-03-01T00:46:41;5.03;;;3.90;;
17153;SDS011;8692;52.164;7.558;2023-03-01T00:49:12;5.37;;;3.83;;
17153;SDS011;8692;52.164;7.558;2023-03-01T00:51:41;4.83;;;3.73;;
17153;SDS011;8692;52.164;7.558;2023-03-01T00:54:10;5.50;;;3.47;;
17153;SDS011;8692;52.164;7.558;2023-03-01T00:56:40;5.73;;;4.03;;
17153;SDS011;8692;52.164;7.558;2023-03-01T00:59:11;6.30;;;3.80;;
17153;SDS011;8692;52.164;7.558;2023-03-01T01:01:39;7.03;;;3.97;;
17153;SDS011;8692;52.164;7.558;2023-03-01T01:04:11;5.93;;;4.00;;
17153;SDS011;8692;52.164;7.558;2023-03-01T01:06:41;6.50;;;4.70;;
17153;SDS011;8692;52.164;7.558;2023-03-01T01:09:13;7.60;;;4.07;;
17153;SDS011;8692;52.164;7.558;2023-03-01T01:11:44;5.70;;;4.43;;
17153;SDS011;8692;52.164;7.558;2023-03-01T01:14:14;8.27;;;4.17;;
17153;SDS011;8692;52.164;7.558;2023-03-01T01:16:42;5.53;;;4.37;;
17153;SDS011;8692;52.164;7.558;2023-03-01T01:19:11;6.80;;;4.50;;
17153;SDS011;8692;52.164;7.558;2023-03-01T01:21:39;6.57;;;4.43;;
17153;SDS011;8692;52.164;7.558;2023-03-01T01:24:09;5.23;;;3.97;;
17153;SDS011;8692;52.164;7.558;2023-03-01T01:26:39;7.67;;;3.70;;
17153;SDS011;8692;52.164;7.558;2023-03-01T01:29:08;5.17;;;4.03;;
17153;SDS011;8692;52.164;7.558;2023-03-01T01:31:37;5.30;;;3.70;;
17153;SDS011;8692;52.164;7.558;2023-03-01T01:34:07;5.63;;;3.60;;
17153;SDS011;8692;52.164;7.558;2023-03-01T01:36:39;4.80;;;3.40;;
17153;SDS011;8692;52.164;7.558;2023-03-01T01:39:08;3.50;;;2.93;;
17153;SDS011;8692;52.164;7.558;2023-03-01T01:41:42;5.93;;;3.83;;
17153;SDS011;8692;52.164;7.558;2023-03-01T01:44:12;5.43;;;3.43;;
17153;SDS011;8692;52.164;7.558;2023-03-01T01:46:43;6.37;;;3.30;;
17153;SDS011;8692;52.164;7.558;2023-03-01T01:49:19;4.40;;;3.20;;
17153;SDS011;8692;52.164;7.558;2023-03-01T01:51:53;3.83;;;2.90;;
17153;SDS011;8692;52.164;7.558;2023-03-01T01:54:27;3.60;;;2.83;;
17153;SDS011;8692;52.164;7.558;2023-03-01T01:57:03;4.03;;;2.97;;
17153;SDS011;8692;52.164;7.558;2023-03-01T01:59:38;4.17;;;3.43;;
17153;SDS011;8692;52.164;7.558;2023-03-01T02:02:08;6.73;;;3.20;;
17153;SDS011;8692;52.164;7.558;2023-03-01T02:04:38;4.00;;;3.37;;
17153;SDS011;8692;52.164;7.558;2023-03-01T02:07:10;4.60;;;3.37;;
17153;SDS011;8692;52.164;7.558;2023-03-01T02:09:45;3.93;;;3.40;;
17153;SDS011;8692;52.164;7.558;2023-03-01T02:12:17;4.53;;;3.30;;
17153;SDS011;8692;52.164;7.558;2023-03-01T02:14:48;4.13;;;2.83;;
17153;SDS011;8692;52.164;7.558;2023-03-01T02:17:18;4.77;;;3.77;;
17153;SDS011;8692;52.164;7.558;2023-03-01T02:19:54;5.47;;;3.20;;
17153;SDS011;8692;52.164;7.558;2023-03-01T02:22:35;4.80;;;2.97;;
17153;SDS011;8692;52.164;7.558;2023-03-01T02:25:12;4.67;;;3.90;;
17153;SDS011;8692;52.164;7.558;2023-03-01T02:27:53;5.40;;;3.13;;
17153;SDS011;8692;52.164;7.558;2023-03-01T02:30:27;7.00;;;3.67;;
17153;SDS011;8692;52.164;7.558;2023-03-01T02:32:57;5.40;;;3.83;;
17153;SDS011;8692;52.164;7.558;2023-03-01T02:35:32;3.80;;;2.90;;
17153;SDS011;8692;52.164;7.558;2023-03-01T02:38:06;6.97;;;3.93;;
17153;SDS011;8692;52.164;7.558;2023-03-01T02:40:36;4.17;;;3.43;;
17153;SDS011;8692;52.164;7.558;2023-03-01T02:43:08;4.60;;;3.60;;
17153;SDS011;8692;52.164;7.558;2023-03-01T02:45:47;4.13;;;3.20;;
17153;SDS011;8692;52.164;7.558;2023-03-01T02:48:16;5.07;;;3.57;;
17153;SDS011;8692;52.164;7.558;2023-03-01T02:50:52;4.93;;;3.40;;
17153;SDS011;8692;52.164;7.558;2023-03-01T02:53:33;5.80;;;3.30;;
17153;SDS011;8692;52.164;7.558;2023-03-01T02:56:09;4.83;;;3.17;;
17153;SDS011;8692;52.164;7.558;2023-03-01T02:58:39;4.90;;;3.13;;
17153;SDS011;8692;52.164;7.558;2023-03-01T03:01:16;6.57;;;3.57;;
17153;SDS011;8692;52.164;7.558;2023-03-01T03:03:46;4.13;;;3.30;;
17153;SDS011;8692;52.164;7.558;2023-03-01T03:06:18;4.30;;;3.20;;
17153;SDS011;8692;52.164;7.558;2023-03-01T03:08:46;6.00;;;3.80;;
17153;SDS011;8692;52.164;7.558;2023-03-01T03:11:16;5.77;;;3.70;;
17153;SDS011;8692;52.164;7.558;2023-03-01T03:13:44;4.77;;;3.70;;
17153;SDS011;8692;52.164;7.558;2023-03-01T03:16:18;5.53;;;4.07;;
17153;SDS011;8692;52.164;7.558;2023-03-01T03:18:49;6.13;;;4.27;;
17153;SDS011;8692;52.164;7.558;2023-03-01T03:21:17;5.13;;;3.83;;
17153;SDS011;8692;52.164;7.558;2023-03-01T03:23:45;6.03;;;3.93;;
17153;SDS011;8692;52.164;7.558;2023-03-01T03:26:14;5.97;;;4.60;;
17153;SDS011;8692;52.164;7.558;2023-03-01T03:28:42;4.10;;;3.50;;
17153;SDS011;8692;52.164;7.558;2023-03-01T03:31:10;5.60;;;4.07;;
17153;SDS011;8692;52.164;7.558;2023-03-01T03:33:42;5.10;;;3.63;;
17153;SDS011;8692;52.164;7.558;2023-03-01T03:36:14;6.10;;;3.50;;
17153;SDS011;8692;52.164;7.558;2023-03-01T03:38:44;5.03;;;3.57;;
17153;SDS011;8692;52.164;7.558;2023-03-01T03:41:12;6.67;;;4.60;;
17153;SDS011;8692;52.164;7.558;2023-03-01T03:43:43;4.93;;;4.17;;
17153;SDS011;8692;52.164;7.558;2023-03-01T03:46:13;5.20;;;3.90;;
17153;SDS011;8692;52.164;7.558;2023-03-01T03:48:45;5.83;;;4.10;;
17153;SDS011;8692;52.164;7.558;2023-03-01T03:51:14;5.43;;;4.03;;
17153;SDS011;8692;52.164;7.558;2023-03-01T03:53:44;5.07;;;3.77;;
17153;SDS011;8692;52.164;7.558;2023-03-01T03:56:13;4.17;;;3.30;;
17153;SDS011;8692;52.164;7.558;2023-03-01T03:58:43;7.67;;;3.60;;
17153;SDS011;8692;52.164;7.558;2023-03-01T04:01:11;3.77;;;3.27;;
17153;SDS011;8692;52.164;7.558;2023-03-01T04:03:40;5.60;;;3.77;;
17153;SDS011;8692;52.164;7.558;2023-03-01T04:06:14;4.90;;;3.63;;
17153;SDS011;8692;52.164;7.558;2023-03-01T04:08:42;4.77;;;3.57;;
17153;SDS011;8692;52.164;7.558;2023-03-01T04:11:10;5.50;;;3.37;;
17153;SDS011;8692;52.164;7.558;2023-03-01T04:13:55;5.03;;;3.30;;
17153;SDS011;8692;52.164;7.558;2023-03-01T04:16:27;5.50;;;4.10;;
17153;SDS011;8692;52.164;7.558;2023-03-01T04:18:56;5.83;;;3.90;;
17153;SDS011;8692;52.164;7.558;2023-03-01T04:21:27;3.87;;;3.47;;
17153;SDS011;8692;52.164;7.558;2023-03-01T04:23:55;6.23;;;4.03;;
17153;SDS011;8692;52.164;7.558;2023-03-01T04:26:26;4.93;;;3.57;;
17153;SDS011;8692;52.164;7.558;2023-03-01T04:28:55;6.67;;;3.93;;
17153;SDS011;8692;52.164;7.558;2023-03-01T04:31:23;7.67;;;4.30;;
17153;SDS011;8692;52.164;7.558;2023-03-01T04:33:52;4.00;;;3.37;;
17153;SDS011;8692;52.164;7.558;2023-03-01T04:36:26;5.13;;;3.20;;
17153;SDS011;8692;52.164;7.558;2023-03-01T04:38:59;5.20;;;3.77;;
17153;SDS011;8692;52.164;7.558;2023-03-01T04:41:38;4.27;;;3.13;;
17153;SDS011;8692;52.164;7.558;2023-03-01T04:44:07;3.67;;;3.17;;
17153;SDS011;8692;52.164;7.558;2023-03-01T04:46:37;4.23;;;3.23;;
17153;SDS011;8692;52.164;7.558;2023-03-01T04:49:05;5.77;;;3.87;;
17153;SDS011;8692;52.164;7.558;2023-03-01T04:51:35;5.87;;;3.80;;
17153;SDS011;8692;52.164;7.558;2023-03-01T04:54:05;4.27;;;3.50;;
17153;SDS011;8692;52.164;7.558;2023-03-01T04:56:35;5.70;;;3.53;;
17153;SDS011;8692;52.164;7.558;2023-03-01T04:59:05;6.37;;;3.77;;
17153;SDS011;8692;52.164;7.558;2023-03-01T05:01:37;7.53;;;3.83;;
17153;SDS011;8692;52.164;7.558;2023-03-01T05:04:05;5.50;;;4.40;;
17153;SDS011;8692;52.164;7.558;2023-03-01T05:06:40;5.13;;;3.17;;
17153;SDS011;8692;52.164;7.558;2023-03-01T05:09:10;5.07;;;4.00;;
17153;SDS011;8692;52.164;7.558;2023-03-01T05:11:41;5.27;;;4.33;;
17153;SDS011;8692;52.164;7.558;2023-03-01T05:14:10;6.13;;;3.87;;
17153;SDS011;8692;52.164;7.558;2023-03-01T05:16:39;6.13;;;3.90;;
17153;SDS011;8692;52.164;7.558;2023-03-01T05:19:07;8.03;;;4.80;;
17153;SDS011;8692;52.164;7.558;2023-03-01T05:21:43;4.20;;;3.80;;
17153;SDS011;8692;52.164;7.558;2023-03-01T05:24:30;5.50;;;4.17;;
17153;SDS011;8692;52.164;7.558;2023-03-01T05:27:02;5.67;;;3.80;;
17153;SDS011;8692;52.164;7.558;2023-03-01T05:29:31;5.43;;;4.07;;
17153;SDS011;8692;52.164;7.558;2023-03-01T05:32:01;4.70;;;3.97;;
17153;SDS011;8692;52.164;7.558;2023-03-01T05:34:33;5.90;;;4.50;;
17153;SDS011;8692;52.164;7.558;2023-03-01T05:37:03;5.23;;;4.17;;
17153;SDS011;8692;52.164;7.558;2023-03-01T05:39:36;6.73;;;4.20;;
17153;SDS011;8692;52.164;7.558;2023-03-01T05:42:04;6.10;;;3.80;;
17153;SDS011;8692;52.164;7.558;2023-03-01T05:44:35;5.63;;;4.07;;
17153;SDS011;8692;52.164;7.558;2023-03-01T05:47:05;5.50;;;4.23;;
17153;SDS011;8692;52.164;7.558;2023-03-01T05:49:33;6.10;;;4.60;;
17153;SDS011;8692;52.164;7.558;2023-03-01T05:52:06;6.60;;;3.97;;
17153;SDS011;8692;52.164;7.558;2023-03-01T05:54:35;5.20;;;3.77;;
17153;SDS011;8692;52.164;7.558;2023-03-01T05:57:03;6.23;;;4.60;;
17153;SDS011;8692;52.164;7.558;2023-03-01T05:59:31;6.30;;;4.47;;
17153;SDS011;8692;52.164;7.558;2023-03-01T06:01:59;7.40;;;5.47;;
17153;SDS011;8692;52.164;7.558;2023-03-01T06:04:30;6.93;;;4.37;;
17153;SDS011;8692;52.164;7.558;2023-03-01T06:06:58;4.93;;;4.17;;
17153;SDS011;8692;52.164;7.558;2023-03-01T06:09:28;8.97;;;4.73;;
17153;SDS011;8692;52.164;7.558;2023-03-01T06:11:58;11.40;;;4.60;;
17153;SDS011;8692;52.164;7.558;2023-03-01T06:14:26;7.65;;;5.35;;
17153;SDS011;8692;52.164;7.558;2023-03-01T06:16:57;8.00;;;4.97;;
17153;SDS011;8692;52.164;7.558;2023-03-01T06:19:25;7.03;;;5.00;;
17153;SDS011;8692;52.164;7.558;2023-03-01T06:21:53;6.67;;;4.53;;
17153;SDS011;8692;52.164;7.558;2023-03-01T06:24:24;9.20;;;4.67;;
17153;SDS011;8692;52.164;7.558;2023-03-01T06:26:55;8.18;;;4.70;;
17153;SDS011;8692;52.164;7.558;2023-03-01T06:29:25;8.67;;;7.03;;
17153;SDS011;8692;52.164;7.558;2023-03-01T06:31:53;6.70;;;5.07;;
17153;SDS011;8692;52.164;7.558;2023-03-01T06:34:22;7.27;;;5.20;;
17153;SDS011;8692;52.164;7.558;2023-03-01T06:36:52;6.13;;;4.50;;
17153;SDS011;8692;52.164;7.558;2023-03-01T06:39:20;6.03;;;4.70;;
17153;SDS011;8692;52.164;7.558;2023-03-01T06:41:48;7.07;;;5.37;;
17153;SDS011;8692;52.164;7.558;2023-03-01T06:44:22;8.20;;;4.40;;
17153;SDS011;8692;52.164;7.558;2023-03-01T06:46:52;6.07;;;4.03;;
17153;SDS011;8692;52.164;7.558;2023-03-01T06:49:21;7.27;;;4.53;;
17153;SDS011;8692;52.164;7.558;2023-03-01T06:51:49;5.63;;;4.00;;
17153;SDS011;8692;52.164;7.558;2023-03-01T06:54:19;8.53;;;4.77;;
17153;SDS011;8692;52.164;7.558;2023-03-01T06:56:51;8.67;;;5.03;;
17153;SDS011;8692;52.164;7.558;2023-03-01T06:59:19;7.03;;;4.80;;
17153;SDS011;8692;52.164;7.558;2023-03-01T07:01:51;10.93;;;5.73;;
17153;SDS011;8692;52.164;7.558;2023-03-01T07:04:21;11.03;;;5.80;;
17153;SDS011;8692;52.164;7.558;2023-03-01T07:06:50;6.13;;;4.67;;
17153;SDS011;8692;52.164;7.558;2023-03-01T07:09:21;8.17;;;4.80;;
17153;SDS011;8692;52.164;7.558;2023-03-01T07:11:52;6.43;;;4.63;;
17153;SDS011;8692;52.164;7.558;2023-03-01T07:14:24;7.33;;;4.60;;
17153;SDS011;8692;52.164;7.558;2023-03-01T07:16:55;6.37;;;4.67;;
17153;SDS011;8692;52.164;7.558;2023-03-01T07:19:23;7.87;;;5.43;;
17153;SDS011;8692;52.164;7.558;2023-03-01T07:21:51;7.00;;;5.07;;
17153;SDS011;8692;52.164;7.558;2023-03-01T07:24:20;7.60;;;5.17;;
17153;SDS011;8692;52.164;7.558;2023-03-01T07:26:48;9.27;;;5.50;;
17153;SDS011;8692;52.164;7.558;2023-03-01T07:29:17;8.03;;;5.03;;
17153;SDS011;8692;52.164;7.558;2023-03-01T07:31:47;7.53;;;5.10;;
17153;SDS011;8692;52.164;7.558;2023-03-01T07:34:15;7.47;;;5.43;;
17153;SDS011;8692;52.164;7.558;2023-03-01T07:36:43;10.07;;;6.13;;
17153;SDS011;8692;52.164;7.558;2023-03-01T07:39:11;8.03;;;5.97;;
17153;SDS011;8692;52.164;7.558;2023-03-01T07:41:39;6.90;;;5.53;;
17153;SDS011;8692;52.164;7.558;2023-03-01T07:44:10;8.53;;;6.10;;
17153;SDS011;8692;52.164;7.558;2023-03-01T07:46:40;10.27;;;6.20;;
17153;SDS011;8692;52.164;7.558;2023-03-01T07:49:12;10.70;;;6.03;;
17153;SDS011;8692;52.164;7.558;2023-03-01T07:51:40;10.13;;;5.90;;
17153;SDS011;8692;52.164;7.558;2023-03-01T07:54:10;9.83;;;6.83;;
17153;SDS011;8692;52.164;7.558;2023-03-01T07:56:38;8.83;;;7.10;;
17153;SDS011;8692;52.164;7.558;2023-03-01T07:59:07;10.90;;;6.47;;
17153;SDS011;8692;52.164;7.558;2023-03-01T08:01:35;8.63;;;6.10;;
17153;SDS011;8692;52.164;7.558;2023-03-01T08:04:05;7.73;;;6.20;;
17153;SDS011;8692;52.164;7.558;2023-03-01T08:06:36;10.37;;;5.93;;
17153;SDS011;8692;52.164;7.558;2023-03-01T08:09:04;9.50;;;6.30;;
17153;SDS011;8692;52.164;7.558;2023-03-01T08:11:36;7.40;;;5.87;;
17153;SDS011;8692;52.164;7.558;2023-03-01T08:14:05;11.70;;;5.93;;
17153;SDS011;8692;52.164;7.558;2023-03-01T08:16:36;9.87;;;6.57;;
17153;SDS011;8692;52.164;7.558;2023-03-01T08:19:05;7.47;;;5.83;;
17153;SDS011;8692;52.164;7.558;2023-03-01T08:21:33;10.50;;;6.47;;
17153;SDS011;8692;52.164;7.558;2023-03-01T08:24:03;8.10;;;6.10;;
17153;SDS011;8692;52.164;7.558;2023-03-01T08:26:33;8.50;;;5.30;;
17153;SDS011;8692;52.164;7.558;2023-03-01T08:29:03;10.30;;;7.13;;
17153;SDS011;8692;52.164;7.558;2023-03-01T08:31:33;10.93;;;6.80;;
17153;SDS011;8692;52.164;7.558;2023-03-01T08:34:04;9.47;;;5.37;;
17153;SDS011;8692;52.164;7.558;2023-03-01T08:36:35;6.87;;;5.27;;
17153;SDS011;8692;52.164;7.558;2023-03-01T08:39:06;6.23;;;5.40;;
17153;SDS011;8692;52.164;7.558;2023-03-01T08:41:35;8.03;;;5.03;;
17153;SDS011;8692;52.164;7.558;2023-03-01T08:44:04;7.10;;;4.73;;
17153;SDS011;8692;52.164;7.558;2023-03-01T08:46:33;9.57;;;5.40;;
17153;SDS011;8692;52.164;7.558;2023-03-01T08:49:03;7.93;;;5.43;;
17153;SDS011;8692;52.164;7.558;2023-03-01T08:51:35;7.53;;;5.60;;
17153;SDS011;8692;52.164;7.558;2023-03-01T08:54:04;7.33;;;4.50;;
17153;SDS011;8692;52.164;7.558;2023-03-01T08:56:34;9.80;;;5.23;;
17153;SDS011;8692;52.164;7.558;2023-03-01T08:59:04;6.63;;;4.37;;
17153;SDS011;8692;52.164;7.558;2023-03-01T09:01:33;6.20;;;4.20;;
17153;SDS011;8692;52.164;7.558;2023-03-01T09:04:01;5.83;;;4.47;;
17153;SDS011;8692;52.164;7.558;2023-03-01T09:06:29;7.20;;;4.43;;
17153;SDS011;8692;52.164;7.558;2023-03-01T09:08:59;5.40;;;4.03;;
17153;SDS011;8692;52.164;7.558;2023-03-01T09:11:29;5.20;;;4.53;;
17153;SDS011;8692;52.164;7.558;2023-03-01T09:13:57;6.17;;;4.20;;
17153;SDS011;8692;52.164;7.558;2023-03-01T09:16:25;5.60;;;4.00;;
17153;SDS011;8692;52.164;7.558;2023-03-01T09:18:54;6.23;;;4.17;;
17153;SDS011;8692;52.164;7.558;2023-03-01T09:21:22;6.80;;;4.40;;
17153;SDS011;8692;52.164;7.558;2023-03-01T09:24:06;8.33;;;4.17;;
17153;SDS011;8692;52.164;7.558;2023-03-01T09:26:40;7.07;;;4.63;;
17153;SDS011;8692;52.164;7.558;2023-03-01T09:29:09;6.77;;;4.27;;
17153;SDS011;8692;52.164;7.558;2023-03-01T09:31:39;7.13;;;4.80;;
17153;SDS011;8692;52.164;7.558;2023-03-01T09:34:08;6.67;;;5.47;;
17153;SDS011;8692;52.164;7.558;2023-03-01T09:36:36;7.93;;;5.20;;
17153;SDS011;8692;52.164;7.558;2023-03-01T09:39:07;7.17;;;4.90;;
17153;SDS011;8692;52.164;7.558;2023-03-01T09:41:47;8.77;;;5.20;;
17153;SDS011;8692;52.164;7.558;2023-03-01T09:44:27;9.50;;;5.57;;
17153;SDS011;8692;52.164;7.558;2023-03-01T09:47:04;8.60;;;5.47;;
17153;SDS011;8692;52.164;7.558;2023-03-01T09:49:33;7.57;;;5.03;;
17153;SDS011;8692;52.164;7.558;2023-03-01T09:52:09;7.37;;;5.30;;
17153;SDS011;8692;52.164;7.558;2023-03-01T09:54:48;8.23;;;5.17;;
17153;SDS011;8692;52.164;7.558;2023-03-01T09:57:24;9.60;;;5.57;;
17153;SDS011;8692;52.164;7.558;2023-03-01T10:00:00;8.57;;;5.80;;
17153;SDS011;8692;52.164;7.558;2023-03-01T10:02:41;10.57;;;6.77;;
17153;SDS011;8692;52.164;7.558;2023-03-01T10:05:19;8.67;;;5.63;;
17153;SDS011;8692;52.164;7.558;2023-03-01T10:08:02;7.07;;;5.90;;
17153;SDS011;8692;52.164;7.558;2023-03-01T10:10:47;7.57;;;5.47;;
17153;SDS011;8692;52.164;7.558;2023-03-01T10:13:19;7.47;;;5.70;;
17153;SDS011;8692;52.164;7.558;2023-03-01T10:15:53;7.30;;;5.50;;
17153;SDS011;8692;52.164;7.558;2023-03-01T10:18:25;7.50;;;5.33;;
17153;SDS011;8692;52.164;7.558;2023-03-01T10:20:55;9.43;;;6.17;;
17153;SDS011;8692;52.164;7.558;2023-03-01T10:23:26;7.50;;;5.20;;
17153;SDS011;8692;52.164;7.558;2023-03-01T10:26:12;7.63;;;5.63;;
17153;SDS011;8692;52.164;7.558;2023-03-01T10:28:54;7.33;;;5.30;;
17153;SDS011;8692;52.164;7.558;2023-03-01T10:31:32;7.70;;;6.00;;
17153;SDS011;8692;52.164;7.558;2023-03-01T10:34:10;7.73;;;5.33;;
17153;SDS011;8692;52.164;7.558;2023-03-01T10:36:41;7.00;;;5.50;;
17153;SDS011;8692;52.164;7.558;2023-03-01T10:39:12;7.53;;;5.10;;
17153;SDS011;8692;52.164;7.558;2023-03-01T10:41:57;9.23;;;5.80;;
17153;SDS011;8692;52.164;7.558;2023-03-01T10:44:44;7.30;;;5.40;;
17153;SDS011;8692;52.164;7.558;2023-03-01T10:47:15;8.70;;;5.63;;
17153;SDS011;8692;52.164;7.558;2023-03-01T10:49:56;8.87;;;4.93;;
17153;SDS011;8692;52.164;7.558;2023-03-01T10:52:30;10.63;;;6.67;;
17153;SDS011;8692;52.164;7.558;2023-03-01T10:55:01;9.43;;;5.83;;
17153;SDS011;8692;52.164;7.558;2023-03-01T10:57:35;6.53;;;5.20;;
17153;SDS011;8692;52.164;7.558;2023-03-01T11:00:20;8.30;;;4.97;;
17153;SDS011;8692;52.164;7.558;2023-03-01T11:03:04;6.97;;;5.07;;
17153;SDS011;8692;52.164;7.558;2023-03-01T11:05:51;9.63;;;5.83;;
17153;SDS011;8692;52.164;7.558;2023-03-01T11:08:32;10.70;;;6.90;;
17153;SDS011;8692;52.164;7.558;2023-03-01T11:11:08;9.37;;;5.67;;
17153;SDS011;8692;52.164;7.558;2023-03-01T11:13:53;6.93;;;5.17;;
17153;SDS011;8692;52.164;7.558;2023-03-01T11:16:35;6.47;;;5.13;;
17153;SDS011;8692;52.164;7.558;2023-03-01T11:21:52;5.93;;;4.90;;
17153;SDS011;8692;52.164;7.558;2023-03-01T11:24:26;8.10;;;5.10;;
17153;SDS011;8692;52.164;7.558;2023-03-01T11:26:57;5.97;;;4.50;;
17153;SDS011;8692;52.164;7.558;2023-03-01T11:29:31;6.87;;;4.97;;
17153;SDS011;8692;52.164;7.558;2023-03-01T11:32:15;7.63;;;4.47;;
17153;SDS011;8692;52.164;7.558;2023-03-01T11:34:45;5.00;;;4.50;;
17153;SDS011;8692;52.164;7.558;2023-03-01T11:37:23;6.10;;;4.43;;
17153;SDS011;8692;52.164;7.558;2023-03-01T11:40:05;4.77;;;3.97;;
17153;SDS011;8692;52.164;7.558;2023-03-01T11:42:48;6.63;;;4.07;;
17153;SDS011;8692;52.164;7.558;2023-03-01T11:45:24;7.23;;;5.00;;
17153;SDS011;8692;52.164;7.558;2023-03-01T11:48:05;7.07;;;4.73;;
17153;SDS011;8692;52.164;7.558;2023-03-01T11:50:49;7.10;;;4.10;;
17153;SDS011;8692;52.164;7.558;2023-03-01T11:53:27;5.63;;;3.80;;
17153;SDS011;8692;52.164;7.558;2023-03-01T11:56:16;6.43;;;4.00;;
17153;SDS011;8692;52.164;7.558;2023-03-01T11:59:01;5.80;;;3.97;;
17153;SDS011;8692;52.164;7.558;2023-03-01T12:01:45;5.13;;;3.70;;
17153;SDS011;8692;52.164;7.558;2023-03-01T12:04:35;4.73;;;3.03;;
17153;SDS011;8692;52.164;7.558;2023-03-01T12:07:24;4.70;;;3.77;;
17153;SDS011;8692;52.164;7.558;2023-03-01T12:10:03;4.93;;;3.77;;
17153;SDS011;8692;52.164;7.558;2023-03-01T12:16:08;6.07;;;3.97;;
17153;SDS011;8692;52.164;7.558;2023-03-01T12:19:20;11.17;;;4.23;;
17153;SDS011;8692;52.164;7.558;2023-03-01T12:22:07;6.20;;;3.97;;
17153;SDS011;8692;52.164;7.558;2023-03-01T12:24:51;6.30;;;4.27;;
17153;SDS011;8692;52.164;7.558;2023-03-01T12:27:46;7.40;;;4.03;;
17153;SDS011;8692;52.164;7.558;2023-03-01T12:30:41;5.23;;;3.83;;
17153;SDS011;8692;52.164;7.558;2023-03-01T12:33:30;5.83;;;4.47;;
17153;SDS011;8692;52.164;7.558;2023-03-01T12:39:07;5.13;;;3.40;;
17153;SDS011;8692;52.164;7.558;2023-03-01T12:41:48;4.23;;;3.47;;
17153;SDS011;8692;52.164;7.558;2023-03-01T12:44:30;5.20;;;3.63;;
17153;SDS011;8692;52.164;7.558;2023-03-01T12:47:19;3.77;;;3.40;;
17153;SDS011;8692;52.164;7.558;2023-03-01T12:49:57;5.80;;;3.53;;
17153;SDS011;8692;52.164;7.558;2023-03-01T12:52:31;5.90;;;3.60;;
17153;SDS011;8692;52.164;7.558;2023-03-01T12:55:15;4.23;;;2.97;;
17153;SDS011;8692;52.164;7.558;2023-03-01T12:57:53;4.97;;;3.40;;
17153;SDS011;8692;52.164;7.558;2023-03-01T13:00:30;6.13;;;3.83;;
17153;SDS011;8692;52.164;7.558;2023-03-01T13:03:05;4.60;;;3.60;;
17153;SDS011;8692;52.164;7.558;2023-03-01T13:05:47;6.13;;;4.10;;
17153;SDS011;8692;52.164;7.558;2023-03-01T13:08:29;4.50;;;3.33;;
17153;SDS011;8692;52.164;7.558;2023-03-01T13:11:05;5.10;;;4.27;;
17153;SDS011;8692;52.164;7.558;2023-03-01T13:13:41;5.13;;;3.43;;
17153;SDS011;8692;52.164;7.558;2023-03-01T13:19:12;4.87;;;3.47;;
17153;SDS011;8692;52.164;7.558;2023-03-01T13:21:45;5.03;;;3.20;;
17153;SDS011;8692;52.164;7.558;2023-03-01T13:25:02;10.37;;;3.50;;
17153;SDS011;8692;52.164;7.558;2023-03-01T13:27:41;17.52;;;3.83;;
17153;SDS011;8692;52.164;7.558;2023-03-01T13:33:33;4.73;;;3.70;;
17153;SDS011;8692;52.164;7.558;2023-03-01T13:36:11;4.90;;;3.33;;
17153;SDS011;8692;52.164;7.558;2023-03-01T13:38:56;7.53;;;5.17;;
17153;SDS011;8692;52.164;7.558;2023-03-01T13:44:21;6.23;;;3.47;;
17153;SDS011;8692;52.164;7.558;2023-03-01T13:46:56;5.17;;;3.90;;
17153;SDS011;8692;52.164;7.558;2023-03-01T13:49:27;6.37;;;4.50;;
17153;SDS011;8692;52.164;7.558;2023-03-01T13:55:16;7.27;;;4.50;;
17153;SDS011;8692;52.164;7.558;2023-03-01T13:57:47;6.27;;;4.13;;
17153;SDS011;8692;52.164;7.558;2023-03-01T14:00:34;5.27;;;4.10;;
17153;SDS011;8692;52.164;7.558;2023-03-01T14:03:13;4.43;;;3.40;;
17153;SDS011;8692;52.164;7.558;2023-03-01T14:05:44;4.67;;;3.23;;
17153;SDS011;8692;52.164;7.558;2023-03-01T14:08:38;12.40;;;6.60;;
17153;SDS011;8692;52.164;7.558;2023-03-01T14:11:21;6.47;;;4.33;;
17153;SDS011;8692;52.164;7.558;2023-03-01T14:14:18;5.63;;;3.33;;
17153;SDS011;8692;52.164;7.558;2023-03-01T14:17:12;6.43;;;3.80;;
17153;SDS011;8692;52.164;7.558;2023-03-01T14:19:58;5.90;;;3.30;;
17153;SDS011;8692;52.164;7.558;2023-03-01T14:22:30;4.20;;;3.53;;
17153;SDS011;8692;52.164;7.558;2023-03-01T14:25:16;6.30;;;3.17;;
17153;SDS011;8692;52.164;7.558;2023-03-01T14:28:03;5.60;;;3.37;;
17153;SDS011;8692;52.164;7.558;2023-03-01T14:30:43;3.77;;;3.03;;
17153;SDS011;8692;52.164;7.558;2023-03-01T14:33:19;5.13;;;3.30;;
17153;SDS011;8692;52.164;7.558;2023-03-01T14:35:56;4.50;;;3.20;;
17153;SDS011;8692;52.164;7.558;2023-03-01T14:38:31;5.37;;;2.90;;
17153;SDS011;8692;52.164;7.558;2023-03-01T14:41:05;4.03;;;2.97;;
17153;SDS011;8692;52.164;7.558;2023-03-01T14:43:35;3.00;;;2.50;;
17153;SDS011;8692;52.164;7.558;2023-03-01T14:46:05;3.07;;;2.67;;
17153;SDS011;8692;52.164;7.558;2023-03-01T14:48:36;2.13;;;1.93;;
17153;SDS011;8692;52.164;7.558;2023-03-01T14:51:05;3.37;;;2.30;;
17153;SDS011;8692;52.164;7.558;2023-03-01T14:53:33;4.20;;;2.27;;
17153;SDS011;8692;52.164;7.558;2023-03-01T14:56:16;4.47;;;2.17;;
17153;SDS011;8692;52.164;7.558;2023-03-01T14:58:45;3.90;;;2.30;;
17153;SDS011;8692;52.164;7.558;2023-03-01T15:01:18;4.70;;;2.47;;
17153;SDS011;8692;52.164;7.558;2023-03-01T15:03:48;3.37;;;2.03;;
17153;SDS011;8692;52.164;7.558;2023-03-01T15:06:21;3.80;;;2.03;;
17153;SDS011;8692;52.164;7.558;2023-03-01T15:08:51;5.53;;;2.70;;
17153;SDS011;8692;52.164;7.558;2023-03-01T15:11:22;2.57;;;1.83;;
17153;SDS011;8692;52.164;7.558;2023-03-01T15:13:53;3.37;;;2.23;;
17153;SDS011;8692;52.164;7.558;2023-03-01T15:16:22;2.97;;;1.83;;
17153;SDS011;8692;52.164;7.558;2023-03-01T15:18:54;2.77;;;2.17;;
17153;SDS011;8692;52.164;7.558;2023-03-01T15:21:27;2.23;;;2.03;;
17153;SDS011;8692;52.164;7.558;2023-03-01T15:24:01;3.93;;;1.87;;
17153;SDS011;8692;52.164;7.558;2023-03-01T15:26:40;5.20;;;2.27;;
17153;SDS011;8692;52.164;7.558;2023-03-01T15:29:14;2.83;;;2.40;;
17153;SDS011;8692;52.164;7.558;2023-03-01T15:31:53;4.23;;;2.50;;
17153;SDS011;8692;52.164;7.558;2023-03-01T15:34:26;3.33;;;2.00;;
17153;SDS011;8692;52.164;7.558;2023-03-01T15:37:01;2.63;;;2.13;;
17153;SDS011;8692;52.164;7.558;2023-03-01T15:39:33;4.07;;;2.73;;
17153;SDS011;8692;52.164;7.558;2023-03-01T15:42:07;2.53;;;1.90;;
17153;SDS011;8692;52.164;7.558;2023-03-01T15:44:40;4.03;;;2.83;;
17153;SDS011;8692;52.164;7.558;2023-03-01T15:47:22;4.57;;;2.40;;
17153;SDS011;8692;52.164;7.558;2023-03-01T15:49:54;3.30;;;2.53;;
17153;SDS011;8692;52.164;7.558;2023-03-01T15:52:27;4.03;;;2.57;;
17153;SDS011;8692;52.164;7.558;2023-03-01T15:54:57;3.20;;;2.30;;
17153;SDS011;8692;52.164;7.558;2023-03-01T15:57:27;3.47;;;2.60;;
17153;SDS011;8692;52.164;7.558;2023-03-01T15:59:56;4.93;;;2.20;;